createdAt,value
2018-07-04T00:00:01.901Z,17.20
2018-07-04T00:02:41.967Z,17.20
2018-07-04T00:05:21.919Z,17.20
2018-07-04T00:08:01.859Z,17.20
2018-07-04T00:10:41.808Z,17.20
2018-07-04T00:13:21.747Z,17.10
2018-07-04T00:16:01.627Z,17.10
2018-07-04T00:18:41.659Z,17.00
2018-07-04T00:21:21.748Z,17.00
2018-07-04T00:24:02.509Z,16.90
2018-07-04T00:26:42.417Z,16.90
2018-07-04T00:29:22.277Z,16.90
2018-07-04T00:32:02.121Z,16.80
2018-07-04T00:34:42.118Z,16.80
2018-07-04T00:37:22.232Z,16.70
2018-07-04T00:40:02.095Z,16.60
2018-07-04T00:42:42.361Z,16.60
2018-07-04T00:45:22.324Z,16.50
2018-07-04T00:48:02.437Z,16.50
2018-07-04T00:50:42.354Z,16.40
2018-07-04T00:53:22.298Z,16.40
2018-07-04T00:56:02.304Z,16.40
2018-07-04T00:58:42.289Z,16.30
2018-07-04T01:01:22.378Z,16.20
2018-07-04T01:04:02.407Z,16.20
2018-07-04T01:06:42.435Z,16.10
2018-07-04T01:09:22.358Z,16.10
2018-07-04T01:12:02.211Z,16.00
2018-07-04T01:14:42.144Z,16.00
2018-07-04T01:17:22.004Z,16.00
2018-07-04T01:20:02.003Z,15.90
2018-07-04T01:22:41.851Z,15.90
2018-07-04T01:25:21.727Z,15.80
2018-07-04T01:28:01.707Z,15.90
2018-07-04T01:30:41.696Z,15.80
2018-07-04T01:35:55.566Z,15.70
2018-07-04T01:38:35.495Z,15.70
2018-07-04T01:41:15.335Z,15.60
2018-07-04T01:43:55.174Z,15.60
2018-07-04T01:46:35.067Z,15.50
2018-07-04T01:49:15.017Z,15.50
2018-07-04T01:51:54.932Z,15.50
2018-07-04T01:54:35.057Z,15.40
2018-07-04T01:57:15.054Z,15.40
2018-07-04T01:59:55.152Z,15.40
2018-07-04T02:02:35.045Z,15.40
2018-07-04T02:05:15.020Z,15.40
2018-07-04T02:07:54.897Z,15.40
2018-07-04T02:10:34.986Z,15.40
2018-07-04T02:15:49.056Z,15.40
2018-07-04T02:18:28.932Z,15.40
2018-07-04T02:21:08.807Z,15.30
2018-07-04T02:23:48.670Z,15.30
2018-07-04T02:26:28.839Z,15.30
2018-07-04T02:29:08.814Z,15.30
2018-07-04T02:31:48.786Z,15.20
2018-07-04T02:34:28.697Z,15.20
2018-07-04T02:37:09.289Z,15.20
2018-07-04T02:39:49.307Z,15.20
2018-07-04T02:42:29.171Z,15.20
2018-07-04T02:45:09.094Z,15.20
2018-07-04T02:47:48.951Z,15.10
2018-07-04T02:50:28.865Z,15.20
2018-07-04T02:53:08.819Z,15.40
2018-07-04T02:55:48.788Z,15.30
2018-07-04T02:58:28.828Z,15.20
2018-07-04T03:01:08.750Z,15.20
2018-07-04T03:03:48.687Z,15.20
2018-07-04T03:06:28.819Z,15.20
2018-07-04T03:09:08.810Z,15.20
2018-07-04T03:11:48.695Z,15.20
2018-07-04T03:14:28.844Z,15.20
2018-07-04T03:17:08.775Z,15.20
2018-07-04T03:19:48.564Z,15.20
2018-07-04T03:22:28.346Z,15.20
2018-07-04T03:25:08.278Z,15.10
2018-07-04T03:27:48.121Z,15.10
2018-07-04T03:30:28.163Z,15.10
2018-07-04T03:33:08.285Z,15.10
2018-07-04T03:35:48.275Z,15.20
2018-07-04T03:38:28.286Z,15.20
2018-07-04T03:41:08.339Z,15.20
2018-07-04T03:43:48.438Z,15.20
2018-07-04T03:46:28.475Z,15.20
2018-07-04T03:49:09.119Z,15.20
2018-07-04T03:51:49.292Z,15.30
2018-07-04T03:54:29.431Z,15.30
2018-07-04T03:57:09.511Z,15.30
2018-07-04T03:59:49.533Z,15.30
2018-07-04T04:02:29.307Z,15.30
2018-07-04T04:05:09.070Z,15.30
2018-07-04T04:07:49.094Z,15.40
2018-07-04T04:10:28.822Z,15.40
2018-07-04T04:13:08.790Z,15.40
2018-07-04T04:15:48.630Z,15.50
2018-07-04T04:18:28.535Z,15.70
2018-07-04T04:21:08.610Z,15.70
2018-07-04T04:23:48.615Z,15.90
2018-07-04T04:26:28.485Z,15.90
2018-07-04T04:29:08.516Z,16.10
2018-07-04T04:31:48.563Z,16.20
2018-07-04T04:34:28.453Z,16.40
2018-07-04T04:37:08.208Z,16.60
2018-07-04T04:39:48.151Z,16.70
2018-07-04T04:42:28.053Z,17.00
2018-07-04T04:45:08.044Z,17.20
2018-07-04T04:47:47.772Z,17.30
2018-07-04T04:50:27.707Z,17.40
2018-07-04T04:53:07.681Z,17.50
2018-07-04T04:55:47.503Z,17.60
2018-07-04T04:58:28.546Z,17.70
2018-07-04T05:01:08.524Z,17.80
2018-07-04T05:03:48.523Z,17.90
2018-07-04T05:06:28.387Z,17.90
2018-07-04T05:09:08.214Z,18.10
2018-07-04T05:11:48.267Z,18.20
2018-07-04T05:14:28.160Z,18.40
2018-07-04T05:17:08.111Z,18.50
2018-07-04T05:19:48.062Z,18.80
2018-07-04T05:22:28.162Z,19.00
2018-07-04T05:25:08.096Z,19.30
2018-07-04T05:27:48.039Z,19.60
2018-07-04T05:30:28.098Z,19.80
2018-07-04T05:33:08.062Z,20.00
2018-07-04T05:35:48.227Z,20.00
2018-07-04T05:38:28.076Z,20.10
2018-07-04T05:41:08.022Z,20.10
2018-07-04T05:43:48.006Z,20.10
2018-07-04T05:46:28.030Z,20.00
2018-07-04T05:49:07.953Z,19.80
2018-07-04T05:51:47.907Z,19.80
2018-07-04T05:57:01.788Z,19.70
2018-07-04T05:59:42.560Z,19.60
2018-07-04T06:02:22.448Z,19.70
2018-07-04T06:05:02.341Z,19.70
2018-07-04T06:07:42.338Z,19.80
2018-07-04T06:10:22.386Z,19.80
2018-07-04T06:13:02.339Z,19.90
2018-07-04T06:15:42.151Z,19.90
2018-07-04T06:18:22.055Z,19.90
2018-07-04T06:21:02.339Z,20.10
2018-07-04T06:23:42.257Z,20.30
2018-07-04T06:26:22.119Z,20.60
2018-07-04T06:29:02.222Z,20.80
2018-07-04T06:31:42.123Z,21.00
2018-07-04T06:34:22.073Z,21.20
2018-07-04T06:37:02.039Z,21.20
2018-07-04T06:39:29.622Z,21.20
2018-07-04T06:41:57.288Z,21.20
2018-07-04T06:44:25.152Z,21.20
2018-07-04T06:46:52.735Z,21.30
2018-07-04T06:49:20.581Z,21.50
2018-07-04T06:51:48.514Z,21.80
2018-07-04T06:54:16.391Z,22.00
2018-07-04T06:56:43.851Z,22.30
2018-07-04T06:59:11.507Z,22.60
2018-07-04T07:01:39.105Z,22.90
2018-07-04T07:04:19.096Z,22.90
2018-07-04T07:06:59.015Z,22.80
2018-07-04T07:09:38.903Z,22.70
2018-07-04T07:12:18.816Z,22.60
2018-07-04T07:14:58.742Z,22.50
2018-07-04T07:17:38.628Z,22.50
2018-07-04T07:20:18.440Z,22.50
2018-07-04T07:22:58.436Z,22.50
2018-07-04T07:25:38.352Z,22.60
2018-07-04T07:28:18.317Z,22.70
2018-07-04T07:30:58.167Z,22.70
2018-07-04T07:33:38.048Z,23.10
2018-07-04T07:36:17.928Z,23.70
2018-07-04T07:38:57.985Z,23.90
2018-07-04T07:41:37.730Z,24.10
2018-07-04T07:44:17.684Z,24.30
2018-07-04T07:46:57.587Z,24.60
2018-07-04T07:49:37.367Z,25.10
2018-07-04T07:52:17.217Z,25.50
2018-07-04T07:54:57.129Z,25.90
2018-07-04T07:57:36.930Z,26.30
2018-07-04T08:00:16.865Z,26.50
2018-07-04T08:02:56.764Z,26.60
2018-07-04T08:05:36.813Z,26.50
2018-07-04T08:08:16.775Z,26.40
2018-07-04T08:10:56.763Z,26.20
2018-07-04T08:13:36.602Z,26.00
2018-07-04T08:16:16.523Z,25.50
2018-07-04T08:18:56.656Z,25.20
2018-07-04T08:21:36.691Z,25.00
2018-07-04T08:24:16.706Z,24.90
2018-07-04T08:26:56.624Z,24.90
2018-07-04T08:29:36.367Z,25.10
2018-07-04T08:32:16.383Z,25.20
2018-07-04T08:37:30.381Z,25.00
2018-07-04T08:40:10.482Z,25.20
2018-07-04T08:42:50.425Z,25.60
2018-07-04T08:45:30.234Z,26.00
2018-07-04T08:48:10.245Z,26.10
2018-07-04T08:50:50.270Z,25.70
2018-07-04T08:53:30.181Z,25.70
2018-07-04T08:56:10.166Z,25.90
2018-07-04T08:58:50.135Z,26.30
2018-07-04T09:01:29.934Z,26.70
2018-07-04T09:04:09.747Z,26.90
2018-07-04T09:06:49.808Z,27.00
2018-07-04T09:09:29.584Z,26.90
2018-07-04T09:12:09.526Z,26.90
2018-07-04T09:17:23.593Z,27.20
2018-07-04T09:20:03.506Z,27.60
2018-07-04T09:22:43.359Z,27.70
2018-07-04T09:25:23.282Z,27.90
2018-07-04T09:28:03.195Z,27.80
2018-07-04T09:30:43.065Z,27.80
2018-07-04T09:33:22.826Z,27.90
2018-07-04T09:36:02.566Z,28.10
2018-07-04T09:38:42.488Z,28.00
2018-07-04T09:41:22.324Z,27.80
2018-07-04T09:44:02.194Z,27.50
2018-07-04T09:46:42.020Z,27.30
2018-07-04T09:49:21.872Z,27.40
2018-07-04T09:52:02.229Z,27.40
2018-07-04T09:54:42.052Z,27.20
2018-07-04T09:57:22.181Z,27.00
2018-07-04T10:00:02.495Z,27.00
2018-07-04T10:02:42.271Z,26.60
2018-07-04T10:05:22.135Z,26.20
2018-07-04T10:08:02.174Z,26.00
2018-07-04T10:10:42.169Z,25.90
2018-07-04T10:13:22.295Z,26.10
2018-07-04T10:16:02.332Z,26.40
2018-07-04T10:18:42.195Z,26.40
2018-07-04T10:21:22.311Z,26.50
2018-07-04T10:24:02.271Z,27.00
2018-07-04T10:26:42.607Z,27.20
2018-07-04T10:29:22.593Z,27.30
2018-07-04T10:32:02.623Z,27.20
2018-07-04T10:34:42.542Z,26.90
2018-07-04T10:37:22.447Z,26.60
2018-07-04T10:40:02.490Z,26.40
2018-07-04T10:45:16.503Z,26.10
2018-07-04T10:47:56.503Z,26.10
2018-07-04T10:50:36.579Z,26.10
2018-07-04T10:53:16.562Z,26.20
2018-07-04T10:55:56.425Z,26.40
2018-07-04T10:58:36.309Z,26.80
2018-07-04T11:01:16.201Z,27.10
2018-07-04T11:03:56.324Z,27.30
2018-07-04T11:06:36.142Z,27.30
2018-07-04T11:09:16.004Z,27.20
2018-07-04T11:11:55.942Z,26.90
2018-07-04T11:14:35.974Z,26.80
2018-07-04T11:17:15.853Z,26.80
2018-07-04T11:19:55.789Z,26.80
2018-07-04T11:22:35.816Z,26.70
2018-07-04T11:25:15.887Z,26.70
2018-07-04T11:27:55.947Z,26.50
2018-07-04T11:30:35.979Z,26.40
2018-07-04T11:33:16.003Z,26.30
2018-07-04T11:35:55.863Z,26.30
2018-07-04T11:38:35.851Z,26.40
2018-07-04T11:41:15.852Z,26.50
2018-07-04T11:43:56.532Z,26.50
2018-07-04T11:46:24.099Z,26.60
2018-07-04T11:48:51.715Z,26.80
2018-07-04T11:51:19.299Z,26.80
2018-07-04T11:53:46.900Z,26.70
2018-07-04T11:56:14.471Z,26.80
2018-07-04T11:58:42.073Z,26.90
2018-07-04T12:01:09.660Z,27.00
2018-07-04T12:03:49.599Z,26.90
2018-07-04T12:06:29.703Z,26.70
2018-07-04T12:08:57.347Z,26.50
2018-07-04T12:11:24.915Z,26.40
2018-07-04T12:13:52.518Z,26.20
2018-07-04T12:16:20.137Z,26.10
2018-07-04T12:18:47.721Z,26.00
2018-07-04T12:21:15.323Z,25.90
2018-07-04T12:23:42.975Z,25.90
2018-07-04T12:26:10.583Z,25.80
2018-07-04T12:28:38.163Z,25.70
2018-07-04T12:31:05.784Z,25.60
2018-07-04T12:33:33.368Z,25.50
2018-07-04T12:36:01.083Z,25.50
2018-07-04T12:38:28.651Z,25.50
2018-07-04T12:40:56.261Z,25.40
2018-07-04T12:43:23.914Z,25.40
2018-07-04T12:48:19.436Z,25.40
2018-07-04T12:50:47.013Z,25.40
2018-07-04T12:55:54.827Z,25.10
2018-07-04T12:58:34.811Z,25.10
2018-07-04T13:01:14.723Z,25.00
2018-07-04T13:06:28.579Z,24.80
2018-07-04T13:09:09.545Z,24.80
2018-07-04T13:11:49.577Z,24.90
2018-07-04T13:14:29.502Z,25.00
2018-07-04T13:17:09.598Z,25.00
2018-07-04T13:19:49.670Z,25.10
2018-07-04T13:22:29.531Z,25.10
2018-07-04T13:25:09.613Z,25.10
2018-07-04T13:27:49.598Z,25.10
2018-07-04T13:30:29.517Z,25.10
2018-07-04T13:33:09.302Z,25.10
2018-07-04T13:35:49.405Z,25.00
2018-07-04T13:38:29.291Z,25.00
2018-07-04T13:41:09.210Z,24.90
2018-07-04T13:43:49.243Z,24.90
2018-07-04T13:46:29.129Z,24.90
2018-07-04T13:49:09.263Z,24.90
2018-07-04T13:51:49.377Z,24.90
2018-07-04T13:54:29.408Z,25.00
2018-07-04T13:57:09.273Z,25.00
2018-07-04T13:59:49.169Z,25.10
2018-07-04T14:02:29.211Z,25.30
2018-07-04T14:05:08.984Z,25.40
2018-07-04T14:07:48.967Z,25.40
2018-07-04T14:10:29.134Z,25.50
2018-07-04T14:13:09.104Z,25.50
2018-07-04T14:15:49.171Z,25.40
2018-07-04T14:18:29.052Z,25.40
2018-07-04T14:21:08.951Z,24.90
2018-07-04T14:23:48.968Z,24.40
2018-07-04T14:26:28.751Z,24.10
2018-07-04T14:29:08.768Z,23.90
2018-07-04T14:31:48.731Z,23.90
2018-07-04T14:34:28.671Z,23.80
2018-07-04T14:37:08.457Z,23.80
2018-07-04T14:39:48.602Z,23.80
2018-07-04T14:42:28.562Z,23.80
2018-07-04T14:45:08.451Z,23.80
2018-07-04T14:47:48.338Z,23.80
2018-07-04T14:53:02.383Z,23.70
2018-07-04T14:55:42.234Z,23.60
2018-07-04T14:58:22.101Z,23.70
2018-07-04T15:01:02.160Z,23.80
2018-07-04T15:03:42.266Z,23.80
2018-07-04T15:06:22.281Z,23.80
2018-07-04T15:09:02.162Z,23.80
2018-07-04T15:11:42.020Z,23.90
2018-07-04T15:14:21.927Z,24.00
2018-07-04T15:17:01.947Z,24.00
2018-07-04T15:19:41.843Z,24.00
2018-07-04T15:22:21.880Z,24.10
2018-07-04T15:25:01.975Z,24.10
2018-07-04T15:27:41.789Z,24.10
2018-07-04T15:30:21.979Z,24.10
2018-07-04T15:33:01.990Z,24.10
2018-07-04T15:35:41.814Z,24.20
2018-07-04T15:38:21.743Z,24.20
2018-07-04T15:41:01.755Z,24.20
2018-07-04T15:43:41.744Z,24.20
2018-07-04T15:46:21.559Z,24.30
2018-07-04T15:49:01.315Z,24.30
2018-07-04T15:51:41.334Z,24.30
2018-07-04T15:56:55.499Z,24.30
2018-07-04T15:59:35.367Z,24.30
2018-07-04T16:02:15.314Z,24.30
2018-07-04T16:04:55.119Z,24.20
2018-07-04T16:07:34.828Z,24.30
2018-07-04T16:10:14.892Z,24.20
2018-07-04T16:12:54.993Z,24.30
2018-07-04T16:15:34.789Z,24.30
2018-07-04T16:18:14.523Z,24.10
2018-07-04T16:20:54.339Z,24.00
2018-07-04T16:23:34.602Z,24.00
2018-07-04T16:26:14.523Z,24.00
2018-07-04T16:28:54.539Z,24.00
2018-07-04T16:31:34.427Z,24.00
2018-07-04T16:34:14.431Z,24.00
2018-07-04T16:36:54.232Z,24.00
2018-07-04T16:39:34.139Z,24.10
2018-07-04T16:42:14.288Z,24.10
2018-07-04T16:44:54.279Z,24.10
2018-07-04T16:47:34.139Z,24.10
2018-07-04T16:50:14.168Z,24.10
2018-07-04T16:52:54.275Z,24.10
2018-07-04T16:55:34.350Z,24.20
2018-07-04T16:58:14.579Z,24.20
2018-07-04T17:00:54.704Z,24.10
2018-07-04T17:03:34.818Z,24.10
2018-07-04T17:06:14.640Z,24.10
2018-07-04T17:08:54.651Z,24.10
2018-07-04T17:11:34.629Z,24.10
2018-07-04T17:14:14.499Z,24.10
2018-07-04T17:16:54.600Z,24.10
2018-07-04T17:19:34.492Z,24.10
2018-07-04T17:22:14.524Z,24.00
2018-07-04T17:24:54.422Z,24.00
2018-07-04T17:27:34.439Z,24.00
2018-07-04T17:30:14.386Z,24.00
2018-07-04T17:32:54.338Z,24.00
2018-07-04T17:35:34.385Z,24.00
2018-07-04T17:38:14.604Z,24.00
2018-07-04T17:40:54.535Z,23.90
2018-07-04T17:43:34.514Z,23.90
2018-07-04T17:46:14.436Z,23.80
2018-07-04T17:48:54.439Z,23.70
2018-07-04T17:51:34.566Z,23.60
2018-07-04T17:54:14.587Z,23.50
2018-07-04T17:56:54.646Z,23.50
2018-07-04T17:59:34.847Z,23.50
2018-07-04T18:02:14.988Z,23.40
2018-07-04T18:04:55.321Z,23.40
2018-07-04T18:07:35.684Z,23.40
2018-07-04T18:10:15.967Z,23.40
2018-07-04T18:12:56.368Z,23.40
2018-07-04T18:15:36.428Z,23.30
2018-07-04T18:18:16.551Z,23.30
2018-07-04T18:20:56.714Z,23.20
2018-07-04T18:23:36.659Z,23.10
2018-07-04T18:26:16.699Z,23.00
2018-07-04T18:28:56.723Z,23.00
2018-07-04T18:31:36.964Z,22.90
2018-07-04T18:34:17.125Z,22.80
2018-07-04T18:36:57.269Z,22.70
2018-07-04T18:39:38.114Z,22.50
2018-07-04T18:42:18.531Z,22.40
2018-07-04T18:44:58.821Z,22.20
2018-07-04T18:47:39.087Z,22.00
2018-07-04T18:50:19.496Z,21.80
2018-07-04T18:52:59.700Z,21.60
2018-07-04T18:55:39.894Z,21.40
2018-07-04T18:58:19.909Z,21.30
2018-07-04T19:01:00.030Z,21.10
2018-07-04T19:03:40.120Z,21.00
2018-07-04T19:06:20.306Z,20.70
2018-07-04T19:09:00.342Z,20.60
2018-07-04T19:11:40.393Z,20.50
2018-07-04T19:14:20.430Z,20.30
2018-07-04T19:17:00.477Z,20.20
2018-07-04T19:19:40.709Z,20.10
2018-07-04T19:22:20.876Z,19.90
2018-07-04T19:25:00.951Z,19.80
2018-07-04T19:27:41.178Z,19.70
2018-07-04T19:30:21.383Z,19.60
2018-07-04T19:33:01.391Z,19.40
2018-07-04T19:35:41.589Z,19.30
2018-07-04T19:38:21.977Z,19.20
2018-07-04T19:41:02.172Z,19.10
2018-07-04T19:43:42.481Z,19.10
2018-07-04T19:46:22.687Z,19.00
2018-07-04T19:49:03.148Z,18.90
2018-07-04T19:51:43.540Z,18.80
2018-07-04T19:54:23.709Z,18.80
2018-07-04T19:57:03.895Z,18.70
2018-07-04T19:59:44.042Z,18.60
2018-07-04T20:02:24.232Z,18.60
2018-07-04T20:05:04.328Z,18.60
2018-07-04T20:07:44.348Z,18.50
2018-07-04T20:10:24.559Z,18.40
2018-07-04T20:13:04.356Z,18.30
2018-07-04T20:15:44.538Z,18.30
2018-07-04T20:18:24.505Z,18.20
2018-07-04T20:21:04.468Z,18.10
2018-07-04T20:23:44.498Z,18.00
2018-07-04T20:26:24.575Z,17.90
2018-07-04T20:29:04.857Z,17.90
2018-07-04T20:31:44.859Z,17.80
2018-07-04T20:34:25.079Z,17.70
2018-07-04T20:37:05.115Z,17.70
2018-07-04T20:39:45.023Z,17.60
2018-07-04T20:42:25.118Z,17.60
2018-07-04T20:45:05.143Z,17.50
2018-07-04T20:47:45.323Z,17.40
2018-07-04T20:50:25.409Z,17.40
2018-07-04T20:53:05.737Z,17.40
2018-07-04T20:55:46.323Z,17.40
2018-07-04T20:58:26.643Z,17.30
2018-07-04T21:01:06.862Z,17.20
2018-07-04T21:06:20.862Z,17.10
2018-07-04T21:09:00.926Z,17.10
2018-07-04T21:11:40.982Z,17.00
2018-07-04T21:14:21.010Z,16.90
2018-07-04T21:17:01.476Z,16.80
2018-07-04T21:19:42.403Z,16.80
2018-07-04T21:22:22.749Z,16.70
2018-07-04T21:25:03.304Z,16.70
2018-07-04T21:27:44.169Z,16.60
2018-07-04T21:30:24.545Z,16.60
2018-07-04T21:33:04.587Z,16.50
2018-07-04T21:35:45.091Z,16.40
2018-07-04T21:38:25.263Z,16.40
2018-07-04T21:41:05.361Z,16.30
2018-07-04T21:43:45.542Z,16.30
2018-07-04T21:46:25.655Z,16.20
2018-07-04T21:49:05.814Z,16.20
2018-07-04T21:51:46.101Z,16.10
2018-07-04T21:54:26.088Z,16.10
2018-07-04T21:57:06.388Z,16.10
2018-07-04T21:59:46.253Z,16.00
2018-07-04T22:02:26.156Z,16.00
2018-07-04T22:05:06.706Z,15.90
2018-07-04T22:07:46.690Z,15.90
2018-07-04T22:10:26.650Z,15.80
2018-07-04T22:13:06.675Z,15.80
2018-07-04T22:15:46.762Z,15.80
2018-07-04T22:18:26.688Z,15.70
2018-07-04T22:21:06.675Z,15.70
2018-07-04T22:23:46.613Z,15.70
2018-07-04T22:26:26.870Z,15.70
2018-07-04T22:29:07.022Z,15.70
2018-07-04T22:31:47.083Z,15.70
2018-07-04T22:34:27.047Z,15.60
2018-07-04T22:37:07.018Z,15.60
2018-07-04T22:39:47.000Z,15.60
2018-07-04T22:42:26.914Z,15.70
2018-07-04T22:45:06.879Z,15.70
2018-07-04T22:47:46.923Z,15.60
2018-07-04T22:50:26.904Z,15.50
2018-07-04T22:53:07.009Z,15.50
2018-07-04T22:55:46.959Z,15.40
2018-07-04T22:58:27.012Z,15.40
2018-07-04T23:01:07.151Z,15.40
2018-07-04T23:03:47.172Z,15.30
2018-07-04T23:06:27.239Z,15.30
2018-07-04T23:09:07.244Z,15.30
2018-07-04T23:11:47.384Z,15.20
2018-07-04T23:14:27.389Z,15.20
2018-07-04T23:17:07.467Z,15.10
2018-07-04T23:19:47.549Z,15.10
2018-07-04T23:22:27.650Z,15.10
2018-07-04T23:25:07.526Z,15.10
2018-07-04T23:27:47.585Z,15.10
2018-07-04T23:30:27.550Z,15.10
2018-07-04T23:33:07.639Z,15.00
2018-07-04T23:35:48.469Z,15.00
2018-07-04T23:38:28.432Z,15.00
2018-07-04T23:41:08.345Z,14.90
2018-07-04T23:43:48.480Z,14.90
2018-07-04T23:46:28.595Z,14.90
2018-07-04T23:49:08.636Z,14.90
2018-07-04T23:51:48.442Z,14.80
2018-07-04T23:54:28.430Z,14.80
2018-07-04T23:57:08.406Z,14.70
2018-07-04T23:59:48.551Z,14.70
